createdAt,value
2022-10-01T00:02:09.681Z,100566.63
2022-10-01T00:04:38.353Z,100567.72
2022-10-01T00:07:10.845Z,100567.38
2022-10-01T00:09:40.382Z,100565.44
2022-10-01T00:12:08.797Z,100561.09
2022-10-01T00:14:38.530Z,100555.75
2022-10-01T00:17:06.501Z,100550.59
2022-10-01T00:19:34.405Z,100558.19
2022-10-01T00:22:02.331Z,100551.44
2022-10-01T00:24:30.368Z,100553.25
2022-10-01T00:27:00.572Z,100549.97
2022-10-01T00:29:28.473Z,100545.38
2022-10-01T00:31:57.406Z,100542.91
2022-10-01T00:34:25.410Z,100535.84
2022-10-01T00:36:53.340Z,100530.50
2022-10-01T00:39:21.581Z,100525.50
2022-10-01T00:41:51.108Z,100525.16
2022-10-01T00:44:33.378Z,100518.75
2022-10-01T00:47:06.834Z,100515.97
2022-10-01T00:49:37.035Z,100508.59
2022-10-01T00:52:10.100Z,100496.72
2022-10-01T00:54:46.676Z,100490.53
2022-10-01T00:57:17.953Z,100498.66
2022-10-01T00:59:48.371Z,100494.91
2022-10-01T01:02:16.403Z,100480.69
2022-10-01T01:04:44.869Z,100484.09
2022-10-01T01:07:14.023Z,100485.53
2022-10-01T01:09:45.164Z,100482.63
2022-10-01T01:12:24.950Z,100486.03
2022-10-01T01:15:04.839Z,100483.47
2022-10-01T01:17:40.792Z,100475.56
2022-10-01T01:20:32.641Z,100478.78
2022-10-01T01:23:10.708Z,100462.63
2022-10-01T01:25:47.254Z,100459.94
2022-10-01T01:28:22.951Z,100459.09
2022-10-01T01:30:56.122Z,100450.13
2022-10-01T01:33:28.170Z,100446.25
2022-10-01T01:36:00.477Z,100440.44
2022-10-01T01:38:35.035Z,100435.97
2022-10-01T01:41:04.613Z,100430.06
2022-10-01T01:43:39.096Z,100425.03
2022-10-01T01:46:10.245Z,100426.13
2022-10-01T01:48:41.954Z,100425.47
2022-10-01T01:51:13.435Z,100408.22
2022-10-01T01:53:42.326Z,100412.47
2022-10-01T01:56:10.694Z,100413.34
2022-10-01T01:58:40.787Z,100401.44
2022-10-01T02:01:10.127Z,100395.75
2022-10-01T02:03:38.010Z,100395.25
2022-10-01T02:06:18.353Z,100383.13
2022-10-01T02:08:52.400Z,100381.06
2022-10-01T02:11:29.888Z,100375.72
2022-10-01T02:14:09.209Z,100372.34
2022-10-01T02:16:48.355Z,100360.66
2022-10-01T02:19:25.080Z,100365.75
2022-10-01T02:21:59.962Z,100355.81
2022-10-01T02:24:37.655Z,100358.72
2022-10-01T02:27:09.824Z,100353.88
2022-10-01T02:29:40.588Z,100343.41
2022-10-01T02:32:10.780Z,100338.28
2022-10-01T02:34:41.272Z,100336.97
2022-10-01T02:37:12.426Z,100338.41
2022-10-01T02:39:43.505Z,100333.06
2022-10-01T02:42:15.706Z,100325.66
2022-10-01T02:44:46.746Z,100324.81
2022-10-01T02:47:22.512Z,100317.88
2022-10-01T02:49:52.002Z,100311.66
2022-10-01T02:52:28.987Z,100314.34
2022-10-01T02:55:00.516Z,100310.91
2022-10-01T02:57:29.854Z,100309.34
2022-10-01T03:00:00.703Z,100308.00
2022-10-01T03:02:31.900Z,100304.13
2022-10-01T03:05:00.872Z,100294.50
2022-10-01T03:07:30.015Z,100296.22
2022-10-01T03:09:57.928Z,100285.28
2022-10-01T03:12:25.896Z,100294.78
2022-10-01T03:14:54.024Z,100289.31
2022-10-01T03:17:23.348Z,100278.38
2022-10-01T03:19:51.286Z,100278.84
2022-10-01T03:22:22.627Z,100272.44
2022-10-01T03:24:50.761Z,100273.16
2022-10-01T03:27:18.870Z,100272.31
2022-10-01T03:29:46.737Z,100274.38
2022-10-01T03:32:15.241Z,100272.06
2022-10-01T03:34:44.686Z,100268.78
2022-10-01T03:37:12.702Z,100264.53
2022-10-01T03:39:40.689Z,100266.09
2022-10-01T03:42:08.566Z,100260.53
2022-10-01T03:44:36.542Z,100270.66
2022-10-01T03:47:04.511Z,100265.44
2022-10-01T03:49:32.391Z,100260.59
2022-10-01T03:52:02.383Z,100265.06
2022-10-01T03:54:31.546Z,100264.72
2022-10-01T03:57:00.137Z,100252.56
2022-10-01T03:59:29.576Z,100256.69
2022-10-01T04:01:57.656Z,100258.13
2022-10-01T04:04:25.638Z,100254.03
2022-10-01T04:06:53.431Z,100246.00
2022-10-01T04:09:22.891Z,100256.56
2022-10-01T04:11:50.704Z,100249.41
2022-10-01T04:14:18.562Z,100238.41
2022-10-01T04:16:46.577Z,100236.81
2022-10-01T04:19:14.476Z,100234.25
2022-10-01T04:21:42.364Z,100227.56
2022-10-01T04:24:10.270Z,100217.25
2022-10-01T04:26:39.486Z,100216.38
2022-10-01T04:29:07.478Z,100216.75
2022-10-01T04:31:36.165Z,100217.72
2022-10-01T04:34:04.905Z,100204.56
2022-10-01T04:36:32.747Z,100202.13
2022-10-01T04:39:02.620Z,100191.31
2022-10-01T04:41:31.905Z,100188.03
2022-10-01T04:44:01.885Z,100186.56
2022-10-01T04:46:30.501Z,100164.97
2022-10-01T04:48:59.145Z,100164.69
2022-10-01T04:51:27.217Z,100154.88
2022-10-01T04:53:56.391Z,100132.75
2022-10-01T04:56:24.231Z,100131.03
2022-10-01T04:58:52.125Z,100120.72
2022-10-01T05:01:21.428Z,100116.84
2022-10-01T05:03:49.413Z,100110.03
2022-10-01T05:06:17.375Z,100108.44
2022-10-01T05:08:45.254Z,100110.97
2022-10-01T05:11:13.103Z,100101.53
2022-10-01T05:13:41.783Z,100093.50
2022-10-01T05:16:09.895Z,100086.22
2022-10-01T05:18:40.603Z,100077.94
2022-10-01T05:21:10.123Z,100075.59
2022-10-01T05:23:38.072Z,100080.47
2022-10-01T05:26:06.337Z,100076.00
2022-10-01T05:28:34.541Z,100067.72
2022-10-01T05:31:03.148Z,100079.25
2022-10-01T05:33:32.195Z,100071.59
2022-10-01T05:36:01.705Z,100067.84
2022-10-01T05:38:29.503Z,100077.44
2022-10-01T05:40:57.343Z,100070.66
2022-10-01T05:43:25.737Z,100077.94
2022-10-01T05:45:53.799Z,100066.66
2022-10-01T05:48:21.870Z,100071.16
2022-10-01T05:50:50.188Z,100059.59
2022-10-01T05:53:19.431Z,100057.66
2022-10-01T05:55:47.318Z,100063.13
2022-10-01T05:58:16.174Z,100055.97
2022-10-01T06:00:47.265Z,100054.75
2022-10-01T06:03:15.369Z,100060.31
2022-10-01T06:05:46.022Z,100057.16
2022-10-01T06:08:14.758Z,100059.09
2022-10-01T06:10:44.313Z,100050.34
2022-10-01T06:13:17.975Z,100050.63
2022-10-01T06:15:47.727Z,100050.38
2022-10-01T06:18:16.036Z,100039.81
2022-10-01T06:20:44.374Z,100032.78
2022-10-01T06:23:13.993Z,100036.78
2022-10-01T06:25:44.799Z,100041.50
2022-10-01T06:28:14.908Z,100035.31
2022-10-01T06:30:43.690Z,100024.88
2022-10-01T06:33:13.483Z,100027.19
2022-10-01T06:35:43.831Z,100017.22
2022-10-01T06:38:12.254Z,100019.16
2022-10-01T06:40:40.576Z,100011.41
2022-10-01T06:43:10.691Z,100006.16
2022-10-01T06:45:43.086Z,100002.53
2022-10-01T06:48:15.107Z,100001.94
2022-10-01T06:50:44.397Z,100001.56
2022-10-01T06:53:13.158Z,99996.81
2022-10-01T06:55:41.287Z,100006.16
2022-10-01T06:58:14.638Z,99998.28
2022-10-01T07:00:43.766Z,99989.66
2022-10-01T07:03:15.979Z,99983.84
2022-10-01T07:05:44.177Z,99974.97
2022-10-01T07:08:13.117Z,99990.38
2022-10-01T07:10:41.700Z,99983.72
2022-10-01T07:13:12.325Z,99978.13
2022-10-01T07:15:40.871Z,99976.31
2022-10-01T07:18:10.306Z,99979.56
2022-10-01T07:20:40.741Z,99983.09
2022-10-01T07:23:11.876Z,99980.69
2022-10-01T07:25:40.735Z,99982.38
2022-10-01T07:28:16.582Z,99976.03
2022-10-01T07:30:48.451Z,99977.38
2022-10-01T07:33:19.320Z,99968.91
2022-10-01T07:35:47.924Z,99966.09
2022-10-01T07:38:16.197Z,99971.56
2022-10-01T07:40:44.324Z,99968.28
2022-10-01T07:43:14.688Z,99959.53
2022-10-01T07:45:42.840Z,99956.72
2022-10-01T07:48:10.783Z,99962.44
2022-10-01T07:50:38.661Z,99954.03
2022-10-01T07:53:06.566Z,99951.63
2022-10-01T07:55:34.707Z,99937.53
2022-10-01T07:58:02.679Z,99932.44
2022-10-01T08:00:34.157Z,99934.63
2022-10-01T08:03:02.524Z,99921.03
2022-10-01T08:05:32.464Z,99925.78
2022-10-01T08:08:01.485Z,99917.13
2022-10-01T08:10:30.301Z,99924.28
2022-10-01T08:13:01.440Z,99917.84
2022-10-01T08:15:29.444Z,99912.53
2022-10-01T08:18:02.061Z,99909.22
2022-10-01T08:20:30.060Z,99919.56
2022-10-01T08:23:02.847Z,99924.16
2022-10-01T08:25:30.957Z,99921.22
2022-10-01T08:28:00.187Z,99914.19
2022-10-01T08:30:28.902Z,99913.59
2022-10-01T08:32:58.995Z,99915.66
2022-10-01T08:35:27.609Z,99913.69
2022-10-01T08:37:56.717Z,99907.00
2022-10-01T08:40:25.493Z,99905.16
2022-10-01T08:42:57.343Z,99905.16
2022-10-01T08:45:29.718Z,99903.59
2022-10-01T08:48:06.606Z,99907.34
2022-10-01T08:50:45.787Z,99899.78
2022-10-01T08:53:19.396Z,99904.66
2022-10-01T08:55:48.634Z,99892.41
2022-10-01T08:58:24.817Z,99893.63
2022-10-01T09:00:52.891Z,99897.63
2022-10-01T09:03:22.142Z,99901.94
2022-10-01T09:06:05.011Z,99898.31
2022-10-01T09:08:45.843Z,99893.91
2022-10-01T09:11:25.422Z,99892.69
2022-10-01T09:14:07.932Z,99889.75
2022-10-01T09:16:43.286Z,99895.00
2022-10-01T09:19:31.625Z,99891.00
2022-10-01T09:22:03.387Z,99896.59
2022-10-01T09:24:43.419Z,99890.28
2022-10-01T09:27:17.501Z,99897.06
2022-10-01T09:29:50.766Z,99897.78
2022-10-01T09:32:22.922Z,99896.38
2022-10-01T09:34:53.465Z,99906.78
2022-10-01T09:37:30.217Z,99896.59
2022-10-01T09:40:14.955Z,99899.63
2022-10-01T09:42:43.659Z,99899.03
2022-10-01T09:45:12.906Z,99903.47
2022-10-01T09:47:43.762Z,99896.41
2022-10-01T09:50:18.575Z,99900.16
2022-10-01T09:52:51.893Z,99898.94
2022-10-01T09:55:29.214Z,99901.38
2022-10-01T09:58:01.228Z,99902.88
2022-10-01T10:00:29.301Z,99903.13
2022-10-01T10:02:57.697Z,99914.28
2022-10-01T10:05:28.999Z,99918.69
2022-10-01T10:07:59.846Z,99906.66
2022-10-01T10:10:30.918Z,99905.88
2022-10-01T10:13:02.131Z,99913.13
2022-10-01T10:15:32.673Z,99914.91
2022-10-01T10:18:08.632Z,99904.63
2022-10-01T10:20:41.272Z,99905.72
2022-10-01T10:23:10.289Z,99918.31
2022-10-01T10:25:38.092Z,99922.22
2022-10-01T10:28:07.248Z,99912.09
2022-10-01T10:30:38.278Z,99920.03
2022-10-01T10:33:08.288Z,99926.09
2022-10-01T10:35:37.112Z,99925.94
2022-10-01T10:38:06.725Z,99930.34
2022-10-01T10:40:42.378Z,99935.72
2022-10-01T10:43:20.878Z,99928.97
2022-10-01T10:45:49.666Z,99936.03
2022-10-01T10:48:19.718Z,99931.50
2022-10-01T10:50:48.270Z,99943.69
2022-10-01T10:53:22.462Z,99947.31
2022-10-01T10:55:59.576Z,99943.47
2022-10-01T10:58:29.390Z,99938.25
2022-10-01T11:01:01.109Z,99944.88
2022-10-01T11:03:32.087Z,99945.31
2022-10-01T11:06:04.440Z,99946.88
2022-10-01T11:08:35.926Z,99957.44
2022-10-01T11:11:18.319Z,99950.94
2022-10-01T11:13:59.891Z,99948.13
2022-10-01T11:16:42.661Z,99953.03
2022-10-01T11:19:29.357Z,99944.09
2022-10-01T11:22:16.722Z,99951.34
2022-10-01T11:25:05.688Z,99946.28
2022-10-01T11:27:43.428Z,99944.69
2022-10-01T11:30:18.082Z,99948.06
2022-10-01T11:32:52.731Z,99955.63
2022-10-01T11:35:35.235Z,99963.81
2022-10-01T11:38:31.397Z,99964.06
2022-10-01T11:41:11.350Z,99964.88
2022-10-01T11:43:44.202Z,99961.47
2022-10-01T11:46:15.598Z,99961.03
2022-10-01T11:48:48.082Z,99964.09
2022-10-01T11:51:20.825Z,99958.13
2022-10-01T11:53:55.054Z,99956.94
2022-10-01T11:56:47.462Z,99955.88
2022-10-01T11:59:22.621Z,99961.81
2022-10-01T12:01:54.892Z,99964.50
2022-10-01T12:04:32.817Z,99960.75
2022-10-01T12:07:06.495Z,99952.25
2022-10-01T12:09:47.322Z,99955.28
2022-10-01T12:12:20.533Z,99953.84
2022-10-01T12:14:55.345Z,99955.66
2022-10-01T12:17:28.684Z,99950.63
2022-10-01T12:20:01.514Z,99956.97
2022-10-01T12:22:33.941Z,99956.59
2022-10-01T12:25:01.941Z,99954.50
2022-10-01T12:27:44.495Z,99952.22
2022-10-01T12:30:16.894Z,99948.69
2022-10-01T12:33:04.951Z,99953.84
2022-10-01T12:35:47.492Z,99957.16
2022-10-01T12:38:28.989Z,99967.91
2022-10-01T12:41:05.077Z,99958.22
2022-10-01T12:43:47.495Z,99962.88
2022-10-01T12:46:25.875Z,99960.50
2022-10-01T12:49:01.806Z,99968.16
2022-10-01T12:51:41.429Z,99971.50
2022-10-01T12:54:35.627Z,99969.13
2022-10-01T12:57:14.545Z,99972.34
2022-10-01T12:59:59.322Z,99977.91
2022-10-01T13:02:45.601Z,99979.00
2022-10-01T13:05:29.445Z,99984.63
2022-10-01T13:08:13.506Z,99988.53
2022-10-01T13:11:00.027Z,100004.28
2022-10-01T13:13:32.876Z,100006.34
2022-10-01T13:16:09.469Z,99999.91
2022-10-01T13:18:47.126Z,100014.81
2022-10-01T13:21:25.312Z,100026.16
2022-10-01T13:23:59.980Z,100053.13
2022-10-01T13:26:34.137Z,100062.44
2022-10-01T13:29:13.316Z,100084.13
2022-10-01T13:31:56.963Z,100083.31
2022-10-01T13:34:38.954Z,100088.56
2022-10-01T13:37:18.563Z,100082.84
2022-10-01T13:39:48.088Z,100093.31
2022-10-01T13:42:25.782Z,100085.50
2022-10-01T13:44:56.519Z,100086.94
2022-10-01T13:47:27.048Z,100096.94
2022-10-01T13:49:57.907Z,100098.22
2022-10-01T13:52:26.464Z,100103.34
2022-10-01T13:54:56.996Z,100097.53
2022-10-01T13:57:32.082Z,100098.56
2022-10-01T14:00:02.489Z,100096.63
2022-10-01T14:02:34.794Z,100098.50
2022-10-01T14:05:32.964Z,100096.94
2022-10-01T14:08:13.719Z,100091.28
2022-10-01T14:11:00.698Z,100090.44
2022-10-01T14:13:48.122Z,100095.56
2022-10-01T14:16:17.460Z,100098.69
2022-10-01T14:18:50.505Z,100096.53
2022-10-01T14:21:37.041Z,100109.16
2022-10-01T14:24:15.840Z,100100.13
2022-10-01T14:26:53.581Z,100108.31
2022-10-01T14:29:39.489Z,100116.81
2022-10-01T14:32:23.472Z,100115.41
2022-10-01T14:35:07.974Z,100120.75
2022-10-01T14:37:40.383Z,100121.69
2022-10-01T14:40:16.579Z,100131.28
2022-10-01T14:42:44.641Z,100118.16
2022-10-01T14:45:17.215Z,100125.53
2022-10-01T14:47:45.842Z,100127.66
2022-10-01T14:50:22.639Z,100130.38
2022-10-01T14:52:51.756Z,100142.38
2022-10-01T14:55:26.942Z,100133.78
2022-10-01T14:57:57.170Z,100135.75
2022-10-01T15:00:27.277Z,100141.25
2022-10-01T15:03:04.845Z,100148.59
2022-10-01T15:05:35.810Z,100155.38
2022-10-01T15:08:11.976Z,100157.66
2022-10-01T15:10:42.893Z,100154.41
2022-10-01T15:13:18.942Z,100157.69
2022-10-01T15:15:47.325Z,100164.59
2022-10-01T15:18:20.607Z,100167.00
2022-10-01T15:20:58.833Z,100169.69
2022-10-01T15:23:29.244Z,100163.31
2022-10-01T15:25:59.486Z,100175.44
2022-10-01T15:28:31.923Z,100182.41
2022-10-01T15:31:03.324Z,100177.91
2022-10-01T15:33:33.530Z,100189.91
2022-10-01T15:36:05.156Z,100181.28
2022-10-01T15:38:34.158Z,100191.47
2022-10-01T15:41:29.825Z,100192.88
2022-10-01T15:43:53.364Z,100193.03
2022-10-01T15:46:33.214Z,100195.84
2022-10-01T15:49:18.696Z,100190.16
2022-10-01T15:52:07.628Z,100188.50
2022-10-01T15:54:36.641Z,100191.59
2022-10-01T15:57:06.203Z,100198.94
2022-10-01T15:59:35.705Z,100212.63
2022-10-01T16:02:10.340Z,100216.88
2022-10-01T16:04:38.461Z,100221.19
2022-10-01T16:07:07.750Z,100222.63
2022-10-01T16:09:35.875Z,100224.22
2022-10-01T16:12:06.772Z,100228.59
2022-10-01T16:14:37.869Z,100233.28
2022-10-01T16:17:28.028Z,100242.19
2022-10-01T16:20:00.931Z,100238.50
2022-10-01T16:22:33.373Z,100245.44
2022-10-01T16:25:04.355Z,100253.50
2022-10-01T16:27:44.331Z,100260.41
2022-10-01T16:30:20.176Z,100267.31
2022-10-01T16:32:48.462Z,100271.69
2022-10-01T16:35:21.458Z,100275.38
2022-10-01T16:37:53.125Z,100275.63
2022-10-01T16:40:24.046Z,100289.81
2022-10-01T16:42:53.053Z,100294.47
2022-10-01T16:45:24.323Z,100295.06
2022-10-01T16:47:53.406Z,100299.25
2022-10-01T16:50:22.839Z,100305.78
2022-10-01T16:52:55.521Z,100318.59
2022-10-01T16:55:25.993Z,100317.19
2022-10-01T16:57:55.692Z,100327.56
2022-10-01T17:00:25.916Z,100333.66
2022-10-01T17:02:54.234Z,100341.69
2022-10-01T17:05:25.763Z,100334.75
2022-10-01T17:07:57.726Z,100342.88
2022-10-01T17:10:26.053Z,100356.09
2022-10-01T17:12:56.214Z,100360.88
2022-10-01T17:15:27.097Z,100367.38
2022-10-01T17:17:55.593Z,100364.94
2022-10-01T17:20:25.213Z,100369.56
2022-10-01T17:22:55.077Z,100371.81
2022-10-01T17:25:25.179Z,100381.09
2022-10-01T17:27:53.430Z,100378.81
2022-10-01T17:30:21.578Z,100385.16
2022-10-01T17:32:49.493Z,100398.13
2022-10-01T17:35:18.214Z,100395.84
2022-10-01T17:37:46.524Z,100401.31
2022-10-01T17:40:16.081Z,100411.22
2022-10-01T17:42:44.139Z,100412.16
2022-10-01T17:45:14.287Z,100417.31
2022-10-01T17:47:46.836Z,100424.50
2022-10-01T17:50:15.956Z,100422.53
2022-10-01T17:52:44.028Z,100429.22
2022-10-01T17:55:12.898Z,100441.78
2022-10-01T17:57:42.934Z,100443.47
2022-10-01T18:00:11.740Z,100455.06
2022-10-01T18:02:42.520Z,100450.94
2022-10-01T18:05:12.621Z,100466.19
2022-10-01T18:07:40.648Z,100469.13
2022-10-01T18:10:11.307Z,100473.16
2022-10-01T18:12:39.306Z,100478.53
2022-10-01T18:15:10.137Z,100477.78
2022-10-01T18:17:43.565Z,100475.66
2022-10-01T18:20:19.729Z,100490.16
2022-10-01T18:22:47.725Z,100480.78
2022-10-01T18:25:16.124Z,100491.75
2022-10-01T18:27:46.097Z,100494.53
2022-10-01T18:30:15.566Z,100500.56
2022-10-01T18:32:47.076Z,100505.66
2022-10-01T18:35:22.014Z,100505.19
2022-10-01T18:37:55.700Z,100506.59
2022-10-01T18:40:28.458Z,100505.38
2022-10-01T18:43:01.086Z,100509.53
2022-10-01T18:45:49.568Z,100515.75
2022-10-01T18:48:38.254Z,100517.72
2022-10-01T18:51:17.027Z,100530.13
2022-10-01T18:54:23.400Z,100531.25
2022-10-01T18:56:58.496Z,100535.41
2022-10-01T18:59:46.424Z,100537.84
2022-10-01T19:02:37.271Z,100548.59
2022-10-01T19:05:52.445Z,100549.19
2022-10-01T19:08:51.615Z,100553.56
2022-10-01T19:11:27.115Z,100559.56
2022-10-01T19:14:02.905Z,100572.47
2022-10-01T19:16:42.103Z,100567.84
2022-10-01T19:19:28.161Z,100573.94
2022-10-01T19:22:01.325Z,100578.56
2022-10-01T19:24:46.096Z,100577.94
2022-10-01T19:27:25.626Z,100579.88
2022-10-01T19:30:03.641Z,100583.31
2022-10-01T19:32:38.565Z,100586.47
2022-10-01T19:35:16.993Z,100589.38
2022-10-01T19:37:51.459Z,100590.47
2022-10-01T19:40:30.333Z,100592.41
2022-10-01T19:43:06.786Z,100599.94
2022-10-01T19:45:43.671Z,100605.16
2022-10-01T19:48:19.699Z,100612.38
2022-10-01T19:50:55.893Z,100608.22
2022-10-01T19:53:30.250Z,100609.44
2022-10-01T19:56:01.437Z,100611.00
2022-10-01T19:58:30.572Z,100611.22
2022-10-01T20:01:01.265Z,100624.34
2022-10-01T20:03:40.361Z,100621.19
2022-10-01T20:06:18.776Z,100620.34
2022-10-01T20:08:50.082Z,100628.78
2022-10-01T20:11:26.943Z,100630.38
2022-10-01T20:14:41.181Z,100637.66
2022-10-01T20:17:17.625Z,100636.03
2022-10-01T20:19:54.997Z,100648.22
2022-10-01T20:22:31.498Z,100658.44
2022-10-01T20:25:08.763Z,100657.34
2022-10-01T20:27:49.073Z,100661.13
2022-10-01T20:30:20.234Z,100673.59
2022-10-01T20:32:57.782Z,100670.81
2022-10-01T20:35:30.940Z,100667.38
2022-10-01T20:38:07.318Z,100680.50
2022-10-01T20:40:40.073Z,100676.59
2022-10-01T20:43:14.485Z,100681.97
2022-10-01T20:45:48.428Z,100685.88
2022-10-01T20:48:20.907Z,100686.59
2022-10-01T20:50:53.887Z,100689.63
2022-10-01T20:53:31.604Z,100693.59
2022-10-01T20:56:06.014Z,100701.28
2022-10-01T20:58:44.677Z,100700.03
2022-10-01T21:01:18.603Z,100707.63
2022-10-01T21:03:50.533Z,100707.00
2022-10-01T21:06:25.677Z,100708.91
2022-10-01T21:09:00.045Z,100719.88
2022-10-01T21:11:33.350Z,100714.72
2022-10-01T21:14:11.938Z,100722.88
2022-10-01T21:17:12.017Z,100720.06
2022-10-01T21:19:57.999Z,100719.31
2022-10-01T21:22:40.533Z,100728.66
2022-10-01T21:25:27.132Z,100735.84
2022-10-01T21:28:09.429Z,100747.63
2022-10-01T21:30:50.500Z,100747.50
2022-10-01T21:33:26.668Z,100760.97
2022-10-01T21:36:01.839Z,100762.34
2022-10-01T21:38:41.076Z,100771.25
2022-10-01T21:41:38.361Z,100771.91
2022-10-01T21:44:24.273Z,100776.94
2022-10-01T21:46:59.663Z,100784.31
2022-10-01T21:49:41.356Z,100777.91
2022-10-01T21:52:27.715Z,100786.56
2022-10-01T21:55:19.741Z,100792.66
2022-10-01T21:58:14.656Z,100795.13
2022-10-01T22:00:43.124Z,100813.00
2022-10-01T22:03:19.255Z,100815.31
2022-10-01T22:05:54.426Z,100819.28
2022-10-01T22:08:57.427Z,100822.13
2022-10-01T22:11:29.714Z,100825.75
2022-10-01T22:14:02.896Z,100828.94
2022-10-01T22:16:36.139Z,100825.81
2022-10-01T22:19:10.868Z,100814.78
2022-10-01T22:21:44.287Z,100812.84
2022-10-01T22:24:15.927Z,100818.53
2022-10-01T22:26:48.390Z,100825.81
2022-10-01T22:29:21.553Z,100833.84
2022-10-01T22:31:52.914Z,100833.66
2022-10-01T22:34:23.874Z,100830.22
2022-10-01T22:36:58.220Z,100841.81
2022-10-01T22:39:27.692Z,100847.53
2022-10-01T22:42:02.593Z,100846.94
2022-10-01T22:44:32.452Z,100844.63
2022-10-01T22:47:14.661Z,100842.81
2022-10-01T22:50:02.299Z,100833.84
2022-10-01T22:52:36.999Z,100834.91
2022-10-01T22:55:24.827Z,100829.53
2022-10-01T22:58:06.635Z,100830.72
2022-10-01T23:00:44.038Z,100836.31
2022-10-01T23:03:26.029Z,100833.25
2022-10-01T23:06:03.795Z,100835.38
2022-10-01T23:08:40.858Z,100839.16
2022-10-01T23:11:22.086Z,100843.88
2022-10-01T23:14:02.001Z,100843.13
2022-10-01T23:16:42.303Z,100843.66
2022-10-01T23:19:32.358Z,100835.00
2022-10-01T23:22:06.736Z,100847.53
2022-10-01T23:24:47.365Z,100839.03
2022-10-01T23:27:28.644Z,100843.47
2022-10-01T23:30:08.102Z,100850.53
2022-10-01T23:32:56.535Z,100841.22
2022-10-01T23:35:38.978Z,100849.03
2022-10-01T23:38:23.010Z,100843.25
2022-10-01T23:40:51.882Z,100848.59
2022-10-01T23:43:26.981Z,100855.00
2022-10-01T23:46:01.332Z,100865.94
2022-10-01T23:48:38.725Z,100869.38
2022-10-01T23:51:16.344Z,100879.97
2022-10-01T23:53:50.613Z,100873.75
2022-10-01T23:56:40.090Z,100872.91
2022-10-01T23:59:14.073Z,100877.50
